Terminal Aerodrome Forecast
Issued by NWS

Home | Current Version | Previous Version | Text Only | Print | Product List | Glossary On
Versions: 1 2 3 4 5 6 7 8 9 10 11 12 13 14 15 16 17 18 19 20 21 22 23 24 25
000
FTUS43 KAPX 281120
TAFMBL
TAF
KMBL 281120Z 2812/2912 18008KT P6SM BKN120
     FM281600 19012KT P6SM BKN045
     FM282300 19010KT P6SM SCT140
     FM290000 19009KT P6SM VCSH SCT100
     FM290200 18008KT P6SM VCSH BKN150
     FM290600 18007KT P6SM BKN090
      AMD LTD TO CLD VIS AND WIND=

USA.gov is the U.S. government's official web portal to all federal, state and local government web resources and services.